Time;durP1;ratioP1;P1;durP2;ratioP2;P2;SDS_P1;SDS_P2;PMS_P1;PMS_P2;Temp;Humidity;BMP_temperature;BMP_pressure;BME280_temperature;BME280_humidity;BME280_pressure;Samples;Min_cycle;Max_cycle;Signal;HPM_P1;HPM_P2
2023/07/29 00:00:27;;;;;;;1.80;0.93;;;22.30;69.20;;;;;;4982115;28;20434;-49
2023/07/29 00:02:56;;;;;;;1.43;0.70;;;22.30;68.90;;;;;;4962466;28;20479;-49
2023/07/29 00:05:26;;;;;;;1.23;0.90;;;22.30;68.70;;;;;;4965914;28;21014;-49
2023/07/29 00:07:55;;;;;;;1.20;0.70;;;22.30;69.10;;;;;;4966256;28;20478;-48
2023/07/29 00:10:24;;;;;;;1.20;0.90;;;22.20;68.90;;;;;;4962628;28;20482;-49
2023/07/29 00:12:53;;;;;;;1.20;0.80;;;22.20;68.80;;;;;;4965234;28;20442;-48
2023/07/29 00:15:23;;;;;;;1.27;0.80;;;22.30;68.50;;;;;;4963806;28;20512;-49
2023/07/29 00:17:52;;;;;;;4.27;0.80;;;22.30;68.70;;;;;;4964880;28;20513;-49
2023/07/29 00:20:21;;;;;;;1.90;0.83;;;22.30;69.10;;;;;;4961911;28;20477;-49
2023/07/29 00:22:54;;;;;;;1.00;0.70;;;22.30;68.80;;;;;;4965451;28;20620;-49
2023/07/29 00:25:24;;;;;;;2.07;0.73;;;22.30;68.80;;;;;;4961558;28;20528;-49
2023/07/29 00:27:56;;;;;;;1.10;0.73;;;22.20;68.60;;;;;;4965187;28;20688;-49
2023/07/29 00:30:27;;;;;;;1.10;0.70;;;22.30;68.80;;;;;;4961942;28;20443;-49
2023/07/29 00:32:56;;;;;;;1.60;0.90;;;22.20;68.80;;;;;;4963292;28;20543;-49
2023/07/29 00:35:25;;;;;;;2.13;0.70;;;22.30;69.00;;;;;;4961331;28;20497;-49
2023/07/29 00:37:58;;;;;;;1.50;1.00;;;22.30;68.60;;;;;;4964650;28;20462;-49
2023/07/29 00:40:30;;;;;;;1.10;0.70;;;22.30;68.30;;;;;;4962782;28;20446;-49
2023/07/29 00:43:00;;;;;;;1.07;0.70;;;22.20;68.10;;;;;;4965255;28;20898;-49
2023/07/29 00:45:33;;;;;;;1.40;1.03;;;22.20;67.60;;;;;;4965524;28;20458;-50
2023/07/29 00:48:03;;;;;;;1.07;0.87;;;22.30;67.70;;;;;;4962312;28;20458;-48
2023/07/29 00:50:34;;;;;;;1.83;0.80;;;22.20;67.80;;;;;;4963725;28;21541;-49
2023/07/29 00:53:05;;;;;;;1.27;0.70;;;22.30;68.00;;;;;;4962077;28;20447;-50
2023/07/29 00:55:33;;;;;;;0.97;0.60;;;22.30;67.80;;;;;;4963561;28;20463;-49
2023/07/29 00:58:02;;;;;;;1.77;0.70;;;22.20;68.10;;;;;;4991050;28;20524;-50
2023/07/29 01:00:34;;;;;;;1.30;0.70;;;22.30;68.40;;;;;;4985900;28;20443;-51
2023/07/29 01:03:05;;;;;;;1.20;0.70;;;22.30;69.00;;;;;;4979659;28;20462;-49
2023/07/29 01:05:51;;;;;;;1.40;0.80;;;22.20;68.50;;;;;;4968485;28;20525;-49
2023/07/29 01:08:32;;;;;;;1.10;0.57;;;22.30;68.00;;;;;;4960824;28;21758;-49
2023/07/29 01:11:07;;;;;;;2.00;0.87;;;22.20;69.30;;;;;;4966121;28;20482;-49
2023/07/29 01:13:45;;;;;;;1.10;0.70;;;22.30;69.30;;;;;;4980366;28;20832;-49
2023/07/29 01:16:20;;;;;;;1.83;0.97;;;22.20;68.90;;;;;;4962954;28;20463;-49
2023/07/29 01:18:52;;;;;;;2.83;1.03;;;22.20;68.70;;;;;;4962793;28;20477;-48
2023/07/29 01:21:23;;;;;;;1.30;0.90;;;22.20;69.30;;;;;;4968826;28;20534;-49
2023/07/29 01:24:01;;;;;;;1.30;1.00;;;22.30;68.20;;;;;;4965730;28;20467;-49
2023/07/29 01:26:29;;;;;;;1.57;0.90;;;22.30;69.00;;;;;;4965909;28;20470;-49
2023/07/29 01:28:59;;;;;;;2.20;1.03;;;22.30;69.10;;;;;;4974591;28;20470;-48
2023/07/29 01:31:33;;;;;;;1.50;0.90;;;22.20;69.10;;;;;;4968886;28;20546;-48
2023/07/29 01:34:11;;;;;;;1.80;0.90;;;22.20;69.30;;;;;;4966095;28;20819;-49
2023/07/29 01:36:44;;;;;;;1.70;1.10;;;22.20;69.90;;;;;;4968156;28;20485;-48
2023/07/29 01:39:19;;;;;;;1.50;0.90;;;22.20;70.00;;;;;;4964702;28;20493;-49
2023/07/29 01:41:49;;;;;;;1.63;0.80;;;22.20;70.20;;;;;;4968256;28;20447;-49
2023/07/29 01:44:19;;;;;;;1.47;1.00;;;22.20;70.40;;;;;;4964091;28;20478;-49
2023/07/29 01:46:50;;;;;;;3.40;1.20;;;22.20;70.40;;;;;;4989942;28;20459;-50
2023/07/29 01:49:22;;;;;;;1.40;0.73;;;22.20;70.90;;;;;;4986445;28;20493;-50
2023/07/29 01:51:50;;;;;;;1.43;0.80;;;22.20;69.90;;;;;;4967628;28;20452;-50
2023/07/29 01:54:20;;;;;;;1.20;0.60;;;22.20;69.80;;;;;;4981517;28;20565;-49
2023/07/29 01:56:51;;;;;;;2.20;0.87;;;22.20;69.60;;;;;;4963342;28;20517;-50
2023/07/29 01:59:20;;;;;;;1.30;0.80;;;22.20;69.60;;;;;;4982022;28;20506;-49
2023/07/29 02:01:48;;;;;;;1.20;0.80;;;22.20;69.90;;;;;;4966753;28;21040;-50
2023/07/29 02:04:17;;;;;;;1.43;0.70;;;22.20;69.60;;;;;;4964456;28;20483;-49
2023/07/29 02:06:46;;;;;;;2.17;1.00;;;22.20;69.50;;;;;;4966746;28;20470;-49
2023/07/29 02:09:16;;;;;;;1.27;0.57;;;22.20;69.40;;;;;;4961982;28;20855;-50
2023/07/29 02:11:47;;;;;;;1.20;0.60;;;22.20;69.20;;;;;;4968512;28;20446;-49
2023/07/29 02:14:16;;;;;;;2.67;0.70;;;22.20;69.40;;;;;;4966281;28;21191;-50
2023/07/29 02:16:45;;;;;;;1.50;0.90;;;22.20;69.30;;;;;;4993964;28;20562;-49
2023/07/29 02:19:14;;;;;;;3.37;0.83;;;22.20;68.90;;;;;;4976498;28;20480;-49
2023/07/29 02:21:44;;;;;;;3.13;0.73;;;22.20;69.10;;;;;;4998383;28;20961;-49
2023/07/29 02:24:13;;;;;;;1.60;0.67;;;22.20;69.30;;;;;;4965828;28;20781;-49
2023/07/29 02:26:42;;;;;;;1.47;0.80;;;22.20;69.10;;;;;;4976750;28;20462;-48
2023/07/29 02:29:15;;;;;;;1.63;0.80;;;22.20;69.10;;;;;;4963069;28;20466;-49
2023/07/29 02:31:44;;;;;;;1.20;0.70;;;22.20;69.00;;;;;;4968128;28;20454;-49
2023/07/29 02:34:19;;;;;;;1.20;0.90;;;22.20;69.10;;;;;;4960063;28;20483;-49
2023/07/29 02:36:50;;;;;;;1.90;0.70;;;22.20;69.00;;;;;;4967850;28;20454;-48
2023/07/29 05:02:52;;;;;;;1.20;0.87;;;22.10;67.50;;;;;;4984130;28;20990;-49
2023/07/29 05:05:21;;;;;;;1.30;0.73;;;22.00;67.70;;;;;;4972593;28;20469;-49
2023/07/29 05:07:51;;;;;;;1.40;0.83;;;22.10;67.40;;;;;;4972925;28;20524;-49
2023/07/29 05:10:21;;;;;;;1.13;0.73;;;22.00;67.30;;;;;;4970668;28;20447;-49
2023/07/29 05:12:50;;;;;;;2.47;0.90;;;22.10;67.30;;;;;;4967691;28;20505;-49
2023/07/29 05:15:19;;;;;;;2.30;1.13;;;22.10;67.40;;;;;;4967735;28;20502;-49
2023/07/29 05:17:48;;;;;;;0.93;0.50;;;22.10;67.50;;;;;;5050205;28;20443;-48
2023/07/29 05:20:19;;;;;;;1.20;0.70;;;22.10;67.30;;;;;;4969987;28;20476;-49
2023/07/29 05:22:48;;;;;;;1.00;0.60;;;22.00;67.20;;;;;;4968009;28;20443;-49
2023/07/29 05:25:18;;;;;;;1.20;0.77;;;22.10;67.20;;;;;;4968832;28;20525;-49
2023/07/29 05:27:47;;;;;;;1.40;0.93;;;22.00;67.10;;;;;;4967462;28;20796;-49
2023/07/29 05:30:17;;;;;;;2.40;0.77;;;22.10;67.00;;;;;;4968915;28;21022;-49
2023/07/29 05:32:47;;;;;;;2.77;0.80;;;22.00;66.80;;;;;;4969871;28;20446;-50
2023/07/29 05:35:19;;;;;;;1.47;0.67;;;22.10;67.10;;;;;;4968790;28;20463;-50
2023/07/29 05:37:51;;;;;;;1.30;0.80;;;22.10;66.80;;;;;;4969831;28;20447;-49
2023/07/29 05:40:20;;;;;;;2.00;1.07;;;22.00;66.70;;;;;;4968479;28;20599;-49
2023/07/29 05:42:50;;;;;;;1.00;0.60;;;22.10;66.80;;;;;;4968155;28;20811;-49
2023/07/29 05:45:20;;;;;;;1.20;0.80;;;22.10;67.10;;;;;;4967459;28;20474;-48
2023/07/29 05:47:49;;;;;;;1.13;0.67;;;22.10;66.60;;;;;;4970130;28;20489;-48
2023/07/29 05:50:20;;;;;;;1.20;0.93;;;22.10;66.50;;;;;;4972925;28;20445;-49
2023/07/29 05:52:50;;;;;;;1.17;0.77;;;22.00;66.30;;;;;;4966271;28;20452;-48
2023/07/29 05:55:19;;;;;;;1.20;0.77;;;22.10;66.60;;;;;;4966466;28;20472;-49
2023/07/29 05:57:49;;;;;;;1.27;0.80;;;22.10;66.80;;;;;;4974547;28;20467;-48
2023/07/29 06:00:18;;;;;;;1.10;0.60;;;22.00;66.70;;;;;;4965645;28;20509;-49
2023/07/29 06:02:47;;;;;;;1.10;0.80;;;22.00;66.60;;;;;;4971239;28;20497;-50
2023/07/29 06:05:23;;;;;;;1.33;0.87;;;22.00;66.60;;;;;;4968569;28;20466;-49
2023/07/29 06:07:52;;;;;;;1.10;0.70;;;22.00;66.50;;;;;;4974097;28;20947;-49
2023/07/29 06:10:22;;;;;;;1.60;0.90;;;22.00;66.70;;;;;;4966872;28;20455;-50
2023/07/29 06:12:51;;;;;;;1.37;0.97;;;22.00;66.90;;;;;;4967289;28;20466;-49
2023/07/29 06:15:22;;;;;;;1.30;0.80;;;22.00;66.70;;;;;;4968972;28;20478;-49
2023/07/29 06:17:52;;;;;;;1.83;1.00;;;22.00;67.30;;;;;;4984305;28;20447;-49
2023/07/29 06:20:26;;;;;;;2.10;1.10;;;22.00;67.00;;;;;;4966757;28;20986;-49
2023/07/29 06:22:56;;;;;;;1.50;0.80;;;22.00;66.90;;;;;;4981396;28;20581;-49
2023/07/29 06:25:25;;;;;;;1.00;0.70;;;22.00;66.80;;;;;;4966624;28;20478;-49
2023/07/29 06:27:54;;;;;;;1.50;0.87;;;22.00;66.80;;;;;;4968006;28;20864;-49
2023/07/29 06:30:23;;;;;;;1.43;1.00;;;22.00;66.80;;;;;;4982375;28;20469;-50
2023/07/29 06:32:52;;;;;;;1.20;0.83;;;22.00;66.80;;;;;;4969086;28;20943;-49
2023/07/29 06:35:22;;;;;;;1.50;0.90;;;22.00;66.70;;;;;;4965971;28;20832;-49
2023/07/29 06:37:56;;;;;;;1.27;0.87;;;22.00;66.70;;;;;;4967613;28;20439;-49
2023/07/29 06:40:26;;;;;;;1.33;0.80;;;22.00;67.20;;;;;;4965042;28;20516;-49
2023/07/29 06:42:56;;;;;;;1.50;1.20;;;22.00;66.90;;;;;;4967628;28;21056;-48
2023/07/29 06:45:24;;;;;;;1.33;0.90;;;22.00;67.00;;;;;;4971350;28;20463;-49
2023/07/29 06:47:53;;;;;;;1.40;0.93;;;22.00;66.70;;;;;;4967302;28;20451;-49
2023/07/29 06:50:22;;;;;;;2.17;0.97;;;22.00;66.80;;;;;;4968320;28;20443;-49
2023/07/29 06:52:51;;;;;;;1.37;1.10;;;22.00;66.90;;;;;;4969100;28;20458;-49
2023/07/29 06:55:22;;;;;;;2.33;0.90;;;22.00;67.00;;;;;;4967924;28;20479;-49
2023/07/29 06:57:51;;;;;;;2.30;1.10;;;22.00;66.70;;;;;;4968226;28;20426;-49
2023/07/29 07:00:21;;;;;;;1.20;0.83;;;22.00;67.10;;;;;;4968643;28;21018;-49
2023/07/29 07:02:50;;;;;;;1.37;0.87;;;22.00;67.00;;;;;;4967409;28;20821;-50
2023/07/29 07:05:20;;;;;;;1.43;1.00;;;22.00;66.80;;;;;;4965841;28;20840;-49
2023/07/29 07:07:49;;;;;;;1.60;0.90;;;22.00;67.10;;;;;;4968388;28;20435;-49
2023/07/29 07:10:19;;;;;;;1.53;1.00;;;22.00;66.60;;;;;;4968146;28;20836;-50
2023/07/29 07:12:50;;;;;;;1.97;1.40;;;22.00;66.80;;;;;;4968162;28;20435;-49
2023/07/29 07:15:19;;;;;;;2.67;1.13;;;22.00;66.90;;;;;;4963914;28;20474;-49
2023/07/29 07:17:48;;;;;;;1.97;1.20;;;22.00;67.10;;;;;;4968898;28;20530;-47
2023/07/29 07:20:22;;;;;;;2.20;1.40;;;21.90;69.60;;;;;;4968058;28;20471;-48
2023/07/29 07:22:53;;;;;;;2.37;1.97;;;21.90;69.60;;;;;;4963096;28;20485;-45
2023/07/29 07:25:25;;;;;;;3.23;1.97;;;22.00;70.40;;;;;;4966200;28;20459;-48
2023/07/29 07:27:55;;;;;;;5.40;2.43;;;22.20;75.70;;;;;;4974022;28;20462;-46
2023/07/29 07:30:23;;;;;;;7.73;2.80;;;22.20;77.20;;;;;;4964288;28;20447;-46
2023/07/29 07:32:52;;;;;;;4.50;2.40;;;22.00;78.90;;;;;;4977992;28;20447;-47
2023/07/29 07:35:21;;;;;;;2.23;1.80;;;21.90;76.60;;;;;;4967280;28;20450;-46
2023/07/29 07:37:50;;;;;;;2.67;1.50;;;21.90;75.80;;;;;;4966906;28;20967;-47
2023/07/29 07:40:18;;;;;;;4.67;1.43;;;21.90;76.30;;;;;;4946665;28;20466;-47
2023/07/29 07:42:49;;;;;;;2.50;1.30;;;21.90;76.30;;;;;;4966133;28;20994;-49
2023/07/29 07:45:21;;;;;;;4.67;1.83;;;22.00;77.30;;;;;;4989913;28;20469;-49
2023/07/29 07:47:50;;;;;;;4.50;1.83;;;21.90;77.00;;;;;;4965570;28;20439;-49
2023/07/29 07:50:23;;;;;;;3.13;1.50;;;21.90;76.70;;;;;;4976801;28;20532;-49
2023/07/29 07:52:58;;;;;;;3.70;1.60;;;21.90;76.60;;;;;;4966541;28;21014;-47
2023/07/29 07:55:27;;;;;;;4.40;1.43;;;21.90;76.60;;;;;;4966724;28;20486;-48
2023/07/29 07:57:57;;;;;;;2.80;1.43;;;21.90;76.20;;;;;;4968041;28;20824;-49
2023/07/29 08:00:28;;;;;;;4.60;1.37;;;21.90;75.40;;;;;;4965398;28;20470;-48
2023/07/29 08:02:57;;;;;;;5.37;1.60;;;21.90;74.80;;;;;;4966019;28;20935;-50
2023/07/29 08:08:39;;;;;;;2.27;1.43;;;21.90;73.80;;;;;;4966032;28;20478;-48
2023/07/29 08:11:08;;;;;;;2.93;1.87;;;21.90;73.40;;;;;;4974091;28;20467;-49
2023/07/29 08:13:36;;;;;;;4.03;1.63;;;21.90;72.70;;;;;;4972775;28;20485;-49
2023/07/29 08:16:07;;;;;;;2.03;1.30;;;21.90;72.70;;;;;;4981779;28;20492;-49
2023/07/29 08:22:20;;;;;;;3.00;2.00;;;22.00;72.10;;;;;;4973734;28;20553;-49
2023/07/29 08:24:49;;;;;;;1.90;1.50;;;21.90;72.00;;;;;;4965141;28;20553;-49
2023/07/29 08:27:17;;;;;;;2.37;1.23;;;22.00;71.80;;;;;;4965791;28;20983;-49
2023/07/29 08:29:46;;;;;;;4.07;1.53;;;21.90;72.40;;;;;;4967366;28;20477;-50
2023/07/29 08:32:18;;;;;;;2.37;2.17;;;21.90;72.00;;;;;;4968738;28;20512;-49
2023/07/29 08:34:47;;;;;;;2.80;1.53;;;21.90;71.80;;;;;;4969737;28;20828;-49
2023/07/29 08:37:16;;;;;;;1.80;1.40;;;21.90;72.00;;;;;;4965955;28;20852;-49
2023/07/29 08:39:48;;;;;;;4.20;1.30;;;21.90;71.80;;;;;;4965729;28;20479;-49
2023/07/29 08:42:21;;;;;;;4.63;2.30;;;21.90;71.50;;;;;;4983541;28;20485;-50
2023/07/29 08:44:53;;;;;;;10.20;2.50;;;22.00;71.80;;;;;;4964014;28;20519;-51
2023/07/29 08:47:23;;;;;;;5.80;1.80;;;22.00;72.70;;;;;;4969110;28;20269;-52
2023/07/29 08:52:48;;;;;;;3.23;1.30;;;22.00;72.30;;;;;;4970895;28;20423;-50
2023/07/29 08:55:19;;;;;;;2.20;1.30;;;21.90;72.20;;;;;;4985506;28;20628;-49
2023/07/29 08:57:49;;;;;;;4.50;1.63;;;21.90;72.40;;;;;;4969450;28;20441;-49
2023/07/29 09:00:20;;;;;;;2.83;1.70;;;21.90;72.50;;;;;;4969762;28;20940;-49
2023/07/29 09:03:25;;;;;;;3.00;2.43;;;21.90;72.30;;;;;;4976250;28;20469;-49
2023/07/29 09:06:10;;;;;;;2.90;2.20;;;21.90;72.70;;;;;;4967225;28;20458;-50
2023/07/29 09:08:44;;;;;;;2.57;1.60;;;21.90;72.70;;;;;;4961700;28;20528;-49
2023/07/29 09:14:20;;;;;;;3.97;1.87;;;21.90;74.20;;;;;;4997984;27;20277;-51
2023/07/29 09:26:31;;;;;;;6.37;1.70;;;21.90;73.40;;;;;;4998807;28;20491;-51
2023/07/29 09:32:24;;;;;;;3.00;1.40;;;21.90;72.20;;;;;;4963229;28;20433;-51
2023/07/29 09:35:02;;;;;;;3.00;1.50;;;21.90;72.40;;;;;;4977615;28;20469;-51
2023/07/29 09:37:44;;;;;;;4.27;2.47;;;22.00;72.20;;;;;;4981801;28;20429;-51
2023/07/29 09:40:29;;;;;;;2.70;1.37;;;22.00;71.70;;;;;;4978591;28;20429;-50
2023/07/29 09:43:06;;;;;;;3.97;1.70;;;22.00;71.40;;;;;;4991254;28;20442;-50
2023/07/29 09:45:49;;;;;;;3.10;1.80;;;22.00;71.50;;;;;;4989812;28;20544;-51
2023/07/29 09:48:33;;;;;;;3.50;1.83;;;22.00;71.60;;;;;;4987940;28;20470;-50
2023/07/29 09:58:38;;;;;;;2.40;1.70;;;22.00;71.70;;;;;;5015995;28;20888;-52
2023/07/29 10:04:02;;;;;;;2.10;1.87;;;21.90;72.00;;;;;;5002036;28;20906;-52
2023/07/29 10:13:40;;;;;;;4.40;1.97;;;21.90;74.50;;;;;;5057773;28;20985;-51
2023/07/29 10:24:32;;;;;;;5.90;2.20;;;21.90;73.40;;;;;;4980054;28;20556;-51
2023/07/29 10:38:01;;;;;;;7.13;1.83;;;21.90;73.00;;;;;;5005572;28;20441;-50
2023/07/29 10:40:58;;;;;;;6.93;2.07;;;21.90;73.00;;;;;;4994087;28;20449;-50
2023/07/29 10:43:28;;;;;;;6.37;2.10;;;21.90;72.80;;;;;;4972453;28;20451;-51
2023/07/29 10:46:20;;;;;;;9.33;3.27;;;21.90;72.90;;;;;;4980199;28;20465;-51
2023/07/29 10:48:58;;;;;;;5.40;2.63;;;21.90;72.50;;;;;;4989905;28;20488;-50
2023/07/29 10:51:30;;;;;;;4.97;1.80;;;21.90;72.50;;;;;;4973328;28;20941;-51
2023/07/29 10:54:01;;;;;;;4.10;2.03;;;21.90;72.80;;;;;;4976749;28;20477;-51
2023/07/29 10:56:31;;;;;;;6.83;2.57;;;21.90;72.60;;;;;;4982321;28;20564;-50
2023/07/29 10:59:32;;;;;;;12.53;2.90;;;21.90;72.90;;;;;;4991481;28;22095;-51
2023/07/29 11:02:02;;;;;;;4.43;1.73;;;21.90;72.60;;;;;;4990835;28;20472;-50
2023/07/29 11:04:31;;;;;;;5.67;2.30;;;21.90;73.40;;;;;;5004878;28;20477;-51
2023/07/29 11:07:26;;;;;;;4.63;1.50;;;21.90;73.20;;;;;;4983284;28;20457;-50
2023/07/29 11:09:58;;;;;;;3.80;2.20;;;21.90;73.50;;;;;;4990719;28;20477;-51
2023/07/29 11:12:38;;;;;;;4.87;1.60;;;21.90;73.60;;;;;;4983855;28;20841;-51
2023/07/29 11:15:16;;;;;;;2.27;1.47;;;21.90;73.40;;;;;;4979244;28;20575;-51
2023/07/29 11:17:46;;;;;;;3.63;1.93;;;21.90;73.10;;;;;;4974081;28;20512;-50
2023/07/29 11:20:15;;;;;;;3.10;1.97;;;21.90;73.10;;;;;;4981499;28;20456;-49
2023/07/29 11:22:46;;;;;;;3.37;2.13;;;21.90;72.80;;;;;;4968730;28;20560;-51
2023/07/29 11:25:16;;;;;;;2.27;1.33;;;22.00;73.00;;;;;;4991273;28;20461;-52
2023/07/29 11:27:46;;;;;;;2.70;1.40;;;22.00;72.50;;;;;;4979303;28;20425;-52
2023/07/29 11:30:15;;;;;;;4.93;2.30;;;21.90;72.20;;;;;;4998176;28;20445;-50
2023/07/29 11:32:45;;;;;;;2.40;1.50;;;22.00;72.10;;;;;;4992031;28;20821;-51
2023/07/29 11:35:16;;;;;;;3.03;1.70;;;22.00;72.10;;;;;;4969673;28;20450;-49
2023/07/29 11:37:48;;;;;;;2.50;1.60;;;22.00;71.90;;;;;;4987056;28;20453;-52
2023/07/29 11:40:21;;;;;;;3.30;1.57;;;21.90;71.50;;;;;;4993333;28;20450;-51
2023/07/29 11:42:51;;;;;;;5.93;2.90;;;22.00;71.60;;;;;;4981419;28;20927;-50
2023/07/29 11:45:20;;;;;;;2.90;1.60;;;22.00;71.30;;;;;;4990195;28;20469;-51
2023/07/29 11:47:52;;;;;;;2.93;1.93;;;22.00;71.00;;;;;;4976426;28;20483;-50
2023/07/29 11:50:21;;;;;;;2.33;1.33;;;22.00;71.10;;;;;;4972434;28;20454;-51
2023/07/29 11:52:53;;;;;;;6.30;2.27;;;22.00;70.90;;;;;;4976966;28;20460;-51
2023/07/29 11:55:23;;;;;;;3.70;1.70;;;22.00;70.70;;;;;;4996910;28;20469;-51
2023/07/29 11:57:53;;;;;;;2.53;1.87;;;22.00;70.40;;;;;;4988334;28;20941;-51
2023/07/29 12:00:22;;;;;;;3.00;1.50;;;22.00;70.40;;;;;;4986927;28;20451;-50
2023/07/29 12:02:52;;;;;;;3.30;1.40;;;22.00;70.30;;;;;;5005977;28;20457;-48
2023/07/29 12:05:24;;;;;;;2.27;1.40;;;22.00;70.10;;;;;;4973874;28;20469;-48
2023/07/29 12:07:54;;;;;;;2.30;1.60;;;22.00;70.00;;;;;;4989347;28;20451;-50
2023/07/29 12:10:24;;;;;;;2.23;1.37;;;22.00;70.00;;;;;;4981831;28;20515;-53
2023/07/29 12:12:52;;;;;;;2.17;1.37;;;22.00;69.80;;;;;;4964233;28;20442;-51
2023/07/29 12:15:26;;;;;;;3.63;1.60;;;22.00;69.70;;;;;;4973021;28;20483;-51
2023/07/29 12:17:57;;;;;;;2.80;1.20;;;22.00;69.70;;;;;;4985060;28;20442;-50
2023/07/29 12:20:26;;;;;;;2.50;1.50;;;22.00;69.60;;;;;;4997546;28;20438;-50
2023/07/29 12:23:01;;;;;;;3.73;1.70;;;22.00;69.60;;;;;;4984646;28;20482;-51
2023/07/29 12:25:30;;;;;;;4.23;1.67;;;22.00;69.40;;;;;;4954211;28;20491;-50
2023/07/29 12:28:04;;;;;;;2.20;1.30;;;22.00;69.40;;;;;;4964281;28;20546;-49
2023/07/29 12:30:32;;;;;;;3.00;1.10;;;22.00;69.40;;;;;;4983287;28;20530;-50
2023/07/29 12:33:01;;;;;;;2.17;1.50;;;22.00;69.40;;;;;;4982650;28;20446;-47
2023/07/29 12:35:37;;;;;;;2.90;1.67;;;22.00;69.30;;;;;;4983769;28;21053;-52
2023/07/29 12:38:07;;;;;;;3.10;1.30;;;22.00;69.30;;;;;;4980675;28;20480;-50
2023/07/29 12:40:40;;;;;;;7.93;1.80;;;22.00;69.30;;;;;;4964906;28;20449;-51
2023/07/29 12:43:08;;;;;;;2.03;1.30;;;22.00;69.20;;;;;;4977542;28;20472;-51
2023/07/29 12:45:39;;;;;;;2.00;1.40;;;22.00;69.20;;;;;;4999371;28;20459;-50
2023/07/29 12:48:08;;;;;;;2.60;1.80;;;22.00;69.20;;;;;;4979821;28;20457;-50
2023/07/29 12:50:38;;;;;;;7.23;1.27;;;22.00;69.20;;;;;;4978570;28;20885;-49
2023/07/29 12:53:10;;;;;;;2.40;1.80;;;22.00;69.00;;;;;;4977620;28;20453;-49
2023/07/29 12:55:38;;;;;;;2.70;1.53;;;22.00;68.90;;;;;;4970913;28;20566;-50
2023/07/29 12:58:07;;;;;;;2.23;1.20;;;22.00;68.90;;;;;;4991274;28;20527;-50
2023/07/29 13:00:35;;;;;;;2.50;1.50;;;22.00;68.80;;;;;;4978091;28;20444;-51
2023/07/29 13:03:05;;;;;;;2.30;1.20;;;22.00;68.90;;;;;;4963877;28;20471;-49
2023/07/29 13:05:38;;;;;;;2.55;1.52;;;22.00;68.70;;;;;;4988528;28;20465;-50
2023/07/29 13:08:11;;;;;;;1.60;1.37;;;22.10;69.50;;;;;;5007853;28;20243;-50
2023/07/29 13:10:40;;;;;;;2.07;1.23;;;22.00;69.30;;;;;;4978238;28;20470;-53
2023/07/29 13:13:08;;;;;;;2.47;1.90;;;22.20;71.70;;;;;;4974671;28;20454;-53
2023/07/29 13:15:37;;;;;;;2.97;1.97;;;22.30;72.90;;;;;;4977868;28;20556;-52
2023/07/29 13:18:05;;;;;;;4.10;3.10;;;22.20;75.60;;;;;;4994061;28;20468;-52
2023/07/29 13:20:34;;;;;;;3.90;2.75;;;22.30;78.80;;;;;;4996449;28;20498;-49
2023/07/29 13:23:03;;;;;;;4.93;2.60;;;22.20;83.10;;;;;;4975908;28;20701;-50
2023/07/29 13:25:34;;;;;;;7.30;3.10;;;22.10;84.30;;;;;;4991542;28;20470;-49
2023/07/29 13:28:02;;;;;;;6.27;3.00;;;22.00;84.10;;;;;;4995652;28;20837;-51
2023/07/29 13:30:32;;;;;;;3.83;2.20;;;22.00;83.90;;;;;;4984861;28;20442;-50
2023/07/29 13:33:00;;;;;;;6.53;2.80;;;22.00;81.80;;;;;;4971049;28;20449;-50
2023/07/29 13:35:31;;;;;;;4.70;2.73;;;22.00;82.00;;;;;;4991184;28;20473;-51
2023/07/29 13:38:00;;;;;;;3.00;2.70;;;22.00;83.00;;;;;;4998233;28;20438;-51
2023/07/29 13:40:29;;;;;;;5.20;2.23;;;22.00;82.10;;;;;;4991266;28;20554;-50
2023/07/29 13:42:59;;;;;;;4.53;2.50;;;22.00;81.70;;;;;;4989719;28;20466;-51
2023/07/29 13:45:27;;;;;;;3.10;2.70;;;22.00;81.50;;;;;;4955564;28;21062;-50
2023/07/29 13:47:56;;;;;;;3.77;2.63;;;22.00;82.20;;;;;;4999357;28;21855;-49
2023/07/29 13:50:24;;;;;;;3.00;2.47;;;22.00;83.20;;;;;;4985619;28;20449;-49
2023/07/29 13:52:53;;;;;;;3.90;2.43;;;22.00;81.70;;;;;;4992376;28;20517;-51
2023/07/29 13:55:22;;;;;;;3.67;2.70;;;22.00;81.90;;;;;;4985455;28;21054;-51
2023/07/29 13:57:50;;;;;;;2.20;2.00;;;22.00;82.40;;;;;;4973195;28;20533;-51
2023/07/29 14:00:20;;;;;;;3.13;2.07;;;22.00;82.10;;;;;;4987957;28;20596;-48
2023/07/29 14:02:49;;;;;;;3.80;2.10;;;22.00;82.10;;;;;;4981511;28;20711;-48
2023/07/29 14:05:18;;;;;;;2.50;2.13;;;22.10;83.80;;;;;;4997468;28;20552;-49
2023/07/29 14:07:50;;;;;;;2.90;2.33;;;22.00;86.50;;;;;;4966900;28;20453;-49
2023/07/29 14:10:19;;;;;;;5.10;1.83;;;21.90;88.10;;;;;;4981733;28;20863;-50
2023/07/29 14:12:47;;;;;;;2.13;1.93;;;21.80;87.50;;;;;;4989464;28;20441;-50
2023/07/29 14:15:18;;;;;;;2.30;2.10;;;21.80;87.00;;;;;;5019633;28;20429;-49
2023/07/29 14:17:48;;;;;;;2.33;2.10;;;21.80;86.90;;;;;;4973003;28;22087;-49
2023/07/29 14:20:17;;;;;;;2.33;1.80;;;21.90;86.50;;;;;;5005020;28;20433;-52
2023/07/29 14:22:49;;;;;;;3.27;2.30;;;21.80;85.70;;;;;;4982086;28;20437;-48
2023/07/29 14:25:18;;;;;;;2.33;1.97;;;21.90;84.70;;;;;;5013366;28;20476;-52
2023/07/29 14:27:46;;;;;;;3.10;2.23;;;21.90;84.60;;;;;;4968530;28;20922;-52
2023/07/29 14:30:15;;;;;;;3.63;2.37;;;21.90;84.00;;;;;;4979232;28;20491;-51
2023/07/29 14:32:44;;;;;;;4.20;2.50;;;21.90;86.20;;;;;;4976033;28;20441;-51
2023/07/29 14:35:14;;;;;;;3.03;2.47;;;21.90;89.00;;;;;;4974633;28;20472;-51
2023/07/29 14:37:43;;;;;;;3.70;2.40;;;21.80;87.60;;;;;;4980721;28;20447;-48
2023/07/29 14:40:12;;;;;;;2.50;2.13;;;21.90;86.80;;;;;;4993818;28;20446;-48
2023/07/29 14:42:42;;;;;;;5.37;2.20;;;21.90;86.80;;;;;;4986179;28;20919;-49
2023/07/29 14:45:11;;;;;;;2.33;2.07;;;21.90;86.40;;;;;;5010531;28;20497;-49
2023/07/29 14:47:40;;;;;;;3.63;2.30;;;21.90;86.80;;;;;;4995910;28;20767;-50
2023/07/29 14:50:09;;;;;;;3.00;1.93;;;21.90;86.70;;;;;;4992871;28;20863;-50
2023/07/29 14:52:40;;;;;;;2.60;2.40;;;21.90;85.80;;;;;;5004455;28;20432;-50
2023/07/29 14:55:09;;;;;;;4.53;2.33;;;22.00;87.50;;;;;;4992380;28;20495;-51
2023/07/29 14:57:41;;;;;;;3.57;2.47;;;22.00;86.80;;;;;;4980905;28;20500;-48
2023/07/29 15:00:22;;;;;;;4.63;2.37;;;22.00;86.30;;;;;;4989404;28;20518;-49
2023/07/29 15:02:50;;;;;;;3.07;2.30;;;22.00;85.80;;;;;;4992356;28;20518;-51
2023/07/29 15:05:19;;;;;;;3.80;2.20;;;22.00;85.60;;;;;;4998737;28;20478;-49
2023/07/29 15:07:49;;;;;;;2.07;1.87;;;22.00;86.20;;;;;;4974706;28;20445;-50
2023/07/29 15:10:18;;;;;;;2.90;2.30;;;22.00;85.70;;;;;;5005873;28;20449;-49
2023/07/29 15:12:47;;;;;;;3.00;2.30;;;22.00;85.20;;;;;;4996740;28;20486;-52
2023/07/29 15:15:15;;;;;;;3.00;2.10;;;22.00;85.60;;;;;;5013449;28;20436;-51
2023/07/29 15:17:48;;;;;;;2.40;2.20;;;22.10;85.70;;;;;;4999757;28;20446;-49
2023/07/29 15:20:24;;;;;;;2.30;2.00;;;22.10;85.80;;;;;;5005470;28;20476;-50
2023/07/29 15:22:54;;;;;;;2.60;2.33;;;22.10;86.30;;;;;;4954874;28;20449;-52
2023/07/29 15:25:23;;;;;;;2.93;2.40;;;22.00;84.20;;;;;;5012215;28;20510;-51
2023/07/29 15:27:51;;;;;;;2.50;2.10;;;22.00;87.40;;;;;;4987743;28;20946;-51
2023/07/29 15:30:21;;;;;;;2.50;2.27;;;22.00;86.80;;;;;;4981680;28;20454;-50
2023/07/29 15:32:49;;;;;;;2.10;1.90;;;22.00;88.70;;;;;;4990100;28;22047;-50
2023/07/29 15:35:18;;;;;;;2.90;2.40;;;22.00;86.80;;;;;;4980740;28;20450;-49
2023/07/29 15:37:47;;;;;;;2.43;2.03;;;22.00;86.70;;;;;;4998260;28;20811;-51
2023/07/29 15:40:19;;;;;;;2.50;2.30;;;22.00;86.30;;;;;;4990932;28;21081;-50
2023/07/29 15:42:47;;;;;;;1.97;1.83;;;22.00;85.90;;;;;;4981499;28;20434;-49
2023/07/29 15:45:16;;;;;;;3.10;2.00;;;22.00;85.20;;;;;;4978462;28;20836;-51
2023/07/29 15:47:45;;;;;;;4.30;2.90;;;22.00;84.70;;;;;;4980758;28;20844;-50
2023/07/29 15:50:13;;;;;;;2.43;2.20;;;22.10;84.60;;;;;;4980261;28;20437;-51
2023/07/29 15:52:43;;;;;;;2.10;1.90;;;22.00;84.70;;;;;;5002133;28;20519;-49
2023/07/29 15:55:12;;;;;;;2.23;1.87;;;22.00;84.20;;;;;;4995962;28;20978;-48
2023/07/29 15:57:43;;;;;;;2.63;2.07;;;22.10;84.40;;;;;;4991391;28;20427;-52
2023/07/29 16:00:14;;;;;;;2.17;1.83;;;22.10;83.90;;;;;;4989541;28;20499;-50
2023/07/29 16:03:03;;;;;;;1.93;1.73;;;22.00;84.50;;;;;;5151012;23;20489;-68
2023/07/29 16:05:32;;;;;;;1.90;1.40;;;22.10;83.40;;;;;;5020988;28;20475;-68
2023/07/29 16:08:03;;;;;;;2.03;1.83;;;22.10;83.50;;;;;;5028468;28;20447;-68
2023/07/29 16:10:31;;;;;;;2.57;2.37;;;22.10;82.80;;;;;;5045395;28;20614;-68
2023/07/29 16:13:02;;;;;;;2.23;2.03;;;22.10;82.20;;;;;;4962589;28;20808;-68
2023/07/29 16:15:31;;;;;;;3.00;2.00;;;22.10;81.70;;;;;;4958734;28;20986;-69
2023/07/29 16:18:00;;;;;;;2.93;2.10;;;22.10;81.70;;;;;;5035229;28;20463;-68
2023/07/29 16:20:29;;;;;;;1.87;1.77;;;22.10;81.70;;;;;;5033513;28;20430;-68
2023/07/29 16:22:57;;;;;;;2.27;2.07;;;22.20;82.60;;;;;;4962057;28;20458;-68
2023/07/29 16:25:26;;;;;;;2.53;2.03;;;22.30;83.10;;;;;;4973318;28;20485;-66
2023/07/29 16:27:55;;;;;;;2.57;2.10;;;22.30;84.50;;;;;;4973332;28;20443;-66
2023/07/29 16:30:26;;;;;;;3.00;2.47;;;22.40;84.50;;;;;;5027186;28;20439;-66
2023/07/29 16:32:54;;;;;;;2.30;2.10;;;22.40;84.20;;;;;;5022426;28;20443;-69